Time;durP1;ratioP1;P1;durP2;ratioP2;P2;SDS_P1;SDS_P2;PMS_P1;PMS_P2;Temp;Humidity;BMP_temperature;BMP_pressure;BME280_temperature;BME280_humidity;BME280_pressure;Samples;Min_cycle;Max_cycle;Signal;HPM_P1;HPM_P2
2021/12/04 00:02:05;;;;;;;8.63;4.13;;;;;;;5.69;100.00;99277.97;4990662;28;20049;-66
2021/12/04 00:04:35;;;;;;;6.32;3.13;;;;;;;5.68;100.00;99276.44;4989556;28;20042;-67
2021/12/04 00:07:05;;;;;;;8.90;3.35;;;;;;;5.70;100.00;99274.19;4988871;28;20038;-67
2021/12/04 00:09:32;;;;;;;7.10;4.30;;;;;;;5.72;100.00;99279.94;4990247;28;20045;-66
2021/12/04 00:12:01;;;;;;;9.73;3.55;;;;;;;5.77;100.00;99273.56;4990235;28;20042;-65
2021/12/04 00:14:27;;;;;;;8.35;3.95;;;;;;;5.79;100.00;99276.63;4989221;28;20049;-65
2021/12/04 00:16:56;;;;;;;5.90;3.35;;;;;;;5.84;100.00;99277.13;4989724;28;20042;-66
2021/12/04 00:19:23;;;;;;;6.65;2.85;;;;;;;5.74;100.00;99275.03;4990619;28;20049;-67
2021/12/04 00:21:53;;;;;;;5.13;2.55;;;;;;;5.76;100.00;99261.31;4984220;28;20031;-67
2021/12/04 00:24:19;;;;;;;7.65;3.75;;;;;;;5.75;100.00;99268.53;4979245;28;20034;-66
2021/12/04 00:26:46;;;;;;;7.88;3.50;;;;;;;5.78;100.00;99272.41;4993757;28;20041;-66
2021/12/04 00:29:12;;;;;;;7.55;3.85;;;;;;;5.87;100.00;99272.97;4998534;28;20403;-66
2021/12/04 00:31:47;;;;;;;6.20;2.95;;;;;;;5.79;100.00;99271.28;4993209;28;20042;-66
2021/12/04 00:34:13;;;;;;;5.53;3.25;;;;;;;5.75;100.00;99268.53;4992883;28;20395;-66
2021/12/04 00:50:08;;;;;;;7.93;3.63;;;;;;;5.84;100.00;99268.34;4993392;28;20057;-66
2021/12/04 00:52:34;;;;;;;5.85;3.35;;;;;;;5.82;100.00;99259.88;4992111;28;20499;-66
2021/12/04 00:55:00;;;;;;;5.30;2.90;;;;;;;5.84;100.00;99265.69;4992659;28;20065;-65
2021/12/04 00:57:28;;;;;;;7.85;3.58;;;;;;;5.88;100.00;99277.19;4993697;28;20053;-66
2021/12/04 00:59:54;;;;;;;8.63;3.92;;;;;;;5.90;100.00;99264.25;4991898;28;20041;-67
2021/12/04 01:02:20;;;;;;;8.40;3.05;;;;;;;5.85;100.00;99270.66;4992862;28;20129;-65
2021/12/04 01:04:47;;;;;;;8.15;3.28;;;;;;;5.79;100.00;99264.03;4992365;28;20030;-66
2021/12/04 01:07:12;;;;;;;5.07;2.58;;;;;;;5.78;100.00;99262.50;4993028;28;20046;-67
2021/12/04 01:09:38;;;;;;;9.15;2.95;;;;;;;5.78;100.00;99261.72;4991961;28;20057;-65
2021/12/04 01:12:04;;;;;;;9.73;3.83;;;;;;;5.88;100.00;99269.16;4993631;28;20034;-66
2021/12/04 01:14:31;;;;;;;10.07;4.43;;;;;;;5.94;100.00;99275.75;4992355;28;20038;-66
2021/12/04 01:16:58;;;;;;;6.60;3.38;;;;;;;5.89;100.00;99268.03;4991865;28;20149;-66
2021/12/04 01:19:25;;;;;;;7.32;3.38;;;;;;;5.90;100.00;99258.91;4993031;28;20376;-68
2021/12/04 01:21:51;;;;;;;10.23;3.67;;;;;;;5.88;100.00;99263.84;4986796;28;20116;-67
2021/12/04 01:24:17;;;;;;;10.32;4.78;;;;;;;5.90;100.00;99262.34;4992043;28;20521;-67
2021/12/04 01:26:42;;;;;;;6.88;3.55;;;;;;;5.91;100.00;99257.75;4990461;28;20042;-67
2021/12/04 01:29:08;;;;;;;9.73;4.00;;;;;;;5.84;100.00;99269.13;4989218;28;20030;-66
2021/12/04 01:31:34;;;;;;;8.32;4.07;;;;;;;5.84;100.00;99271.78;4992127;28;20510;-66
2021/12/04 01:33:59;;;;;;;13.43;4.10;;;;;;;5.92;100.00;99278.03;4992187;28;20046;-65
2021/12/04 01:36:29;;;;;;;13.18;5.55;;;;;;;5.94;100.00;99275.75;4988400;28;20046;-67
2021/12/04 01:38:55;;;;;;;8.35;3.15;;;;;;;5.85;100.00;99283.22;4992444;28;20041;-65
2021/12/04 01:41:21;;;;;;;8.55;4.32;;;;;;;5.90;100.00;99280.28;4991898;28;20470;-66
2021/12/04 01:43:46;;;;;;;9.63;4.53;;;;;;;5.95;100.00;99277.28;4991832;28;20038;-65
2021/12/04 01:46:12;;;;;;;7.72;3.22;;;;;;;5.89;100.00;99268.81;4991914;28;20495;-66
2021/12/04 01:48:37;;;;;;;6.15;3.25;;;;;;;5.91;100.00;99271.91;4992443;28;20032;-67
2021/12/04 01:51:03;;;;;;;10.57;3.75;;;;;;;5.92;100.00;99276.09;4989010;28;20072;-66
2021/12/04 01:53:29;;;;;;;15.93;5.45;;;;;;;5.97;100.00;99281.16;4991054;28;20026;-66
2021/12/04 01:55:57;;;;;;;10.20;5.03;;;;;;;5.94;100.00;99268.50;4989829;28;20056;-66
2021/12/04 01:58:24;;;;;;;10.23;4.30;;;;;;;5.91;100.00;99271.13;4990314;28;20042;-68
2021/12/04 02:00:51;;;;;;;9.10;3.60;;;;;;;5.95;100.00;99280.75;4990957;28;20630;-67
2021/12/04 02:03:18;;;;;;;10.35;4.35;;;;;;;6.05;100.00;99276.69;4990522;28;20553;-67
2021/12/04 02:05:44;;;;;;;9.13;4.22;;;;;;;5.98;100.00;99272.00;4987388;28;20042;-67
2021/12/04 02:08:16;;;;;;;11.82;4.20;;;;;;;5.91;100.00;99279.13;4988314;28;20157;-67
2021/12/04 02:10:43;;;;;;;8.73;3.40;;;;;;;5.96;100.00;99279.59;4989062;28;20046;-67
2021/12/04 02:13:09;;;;;;;9.93;3.97;;;;;;;5.97;100.00;99273.16;4988730;28;20530;-67
2021/12/04 02:15:34;;;;;;;8.32;3.80;;;;;;;5.97;100.00;99280.38;4987268;28;20030;-67
2021/12/04 02:18:02;;;;;;;5.63;3.13;;;;;;;5.90;100.00;99280.28;4991352;28;20113;-67
2021/12/04 02:20:29;;;;;;;9.25;3.70;;;;;;;5.99;100.00;99278.13;4991451;28;20034;-67
2021/12/04 02:22:56;;;;;;;7.07;3.05;;;;;;;5.95;100.00;99269.28;4990176;28;20041;-67
2021/12/04 02:25:22;;;;;;;8.27;3.95;;;;;;;6.01;100.00;99273.97;4991514;28;20053;-67
2021/12/04 02:27:48;;;;;;;8.57;3.97;;;;;;;5.98;100.00;99269.31;4989408;28;20026;-68
2021/12/04 02:30:17;;;;;;;10.68;4.05;;;;;;;5.92;100.00;99268.09;4991586;28;20041;-67
2021/12/04 02:32:43;;;;;;;9.48;4.25;;;;;;;6.02;100.00;99277.41;4990331;28;20125;-67
2021/12/04 02:35:10;;;;;;;8.18;3.80;;;;;;;5.98;100.00;99277.34;4990441;28;20129;-66
2021/12/04 02:37:38;;;;;;;11.20;4.07;;;;;;;6.02;100.00;99272.09;4988667;28;20075;-66
2021/12/04 02:40:05;;;;;;;10.90;4.35;;;;;;;6.00;100.00;99269.75;4990647;28;20470;-66
2021/12/04 02:42:31;;;;;;;9.65;3.50;;;;;;;5.97;100.00;99270.47;4991315;28;20066;-66
2021/12/04 02:44:59;;;;;;;10.68;4.80;;;;;;;6.00;100.00;99266.31;4989336;28;20069;-66
2021/12/04 02:47:26;;;;;;;7.28;3.13;;;;;;;6.02;100.00;99264.06;4991870;28;20092;-66
2021/12/04 02:49:55;;;;;;;9.20;3.53;;;;;;;5.95;100.00;99255.91;4990929;28;20458;-66
2021/12/04 02:52:24;;;;;;;8.30;3.85;;;;;;;5.88;100.00;99251.25;4987037;28;20042;-66
2021/12/04 02:54:51;;;;;;;11.48;4.75;;;;;;;5.92;100.00;99256.66;4989845;28;20113;-66
2021/12/04 02:57:19;;;;;;;9.93;4.00;;;;;;;5.98;100.00;99250.63;4987784;28;20058;-66
2021/12/04 02:59:54;;;;;;;8.40;3.30;;;;;;;6.00;100.00;99247.63;4990140;28;20038;-66
2021/12/04 03:02:22;;;;;;;8.38;4.18;;;;;;;5.99;100.00;99254.06;4991007;28;20049;-66
2021/12/04 03:04:55;;;;;;;6.88;3.03;;;;;;;6.01;100.00;99249.16;4987286;28;20034;-66
2021/12/04 03:07:22;;;;;;;6.23;3.83;;;;;;;6.00;100.00;99252.97;4990846;28;20041;-66
2021/12/04 03:09:47;;;;;;;12.43;4.35;;;;;;;6.00;100.00;99250.28;4988316;28;20305;-66
2021/12/04 03:12:16;;;;;;;15.05;5.45;;;;;;;5.99;100.00;99252.19;4998893;28;20046;-66
2021/12/04 03:14:41;;;;;;;9.75;4.15;;;;;;;5.93;100.00;99252.84;4989852;28;20030;-66
2021/12/04 03:17:08;;;;;;;8.02;3.30;;;;;;;5.92;100.00;99254.72;4990674;28;20038;-66
2021/12/04 03:19:34;;;;;;;10.65;4.53;;;;;;;5.95;100.00;99245.22;4990119;28;20030;-66
2021/12/04 03:22:02;;;;;;;10.45;4.10;;;;;;;5.99;100.00;99238.06;4990908;28;20383;-66
2021/12/04 03:24:29;;;;;;;11.25;4.22;;;;;;;6.00;100.00;99247.63;4987088;28;20042;-66
2021/12/04 03:26:55;;;;;;;7.53;3.42;;;;;;;5.95;100.00;99240.66;4990825;28;20042;-66
2021/12/04 03:29:24;;;;;;;7.47;3.42;;;;;;;5.96;100.00;99241.44;4990378;28;20045;-66
2021/12/04 03:42:30;;;;;;;12.00;3.38;;;;;;;6.07;100.00;99247.72;4990631;28;20038;-66
2021/12/04 03:44:56;;;;;;;6.75;3.75;;;;;;;6.07;100.00;99231.69;4989348;28;20041;-66
2021/12/04 03:47:24;;;;;;;8.20;3.65;;;;;;;6.10;100.00;99236.31;4990036;28;20034;-67
2021/12/04 03:49:51;;;;;;;12.13;4.30;;;;;;;6.07;100.00;99229.00;4975602;28;20034;-66
2021/12/04 03:52:17;;;;;;;12.00;5.03;;;;;;;6.06;100.00;99217.56;4987213;28;20065;-66
2021/12/04 03:54:43;;;;;;;11.23;5.10;;;;;;;6.16;100.00;99224.16;4989356;28;20076;-67
2021/12/04 03:57:10;;;;;;;11.00;4.72;;;;;;;6.10;100.00;99215.69;4987831;28;20092;-66
2021/12/04 03:59:39;;;;;;;10.18;5.07;;;;;;;6.17;100.00;99218.50;4992723;28;20035;-66
2021/12/04 04:02:06;;;;;;;10.20;4.32;;;;;;;6.14;100.00;99215.75;4993767;28;20038;-66
2021/12/04 04:04:32;;;;;;;12.07;4.03;;;;;;;6.08;100.00;99222.53;4993429;28;20049;-67
2021/12/04 04:06:59;;;;;;;8.07;4.25;;;;;;;6.00;100.00;99213.63;4993506;28;20038;-66
2021/12/04 04:09:26;;;;;;;11.77;4.93;;;;;;;6.06;100.00;99214.09;4991910;28;20034;-66
2021/12/04 04:11:52;;;;;;;8.93;3.95;;;;;;;5.99;100.00;99211.34;4993691;28;20701;-66
2021/12/04 04:14:17;;;;;;;9.00;4.43;;;;;;;5.99;100.00;99204.09;4993643;28;20041;-66
2021/12/04 04:16:43;;;;;;;13.70;5.25;;;;;;;6.12;100.00;99201.97;4994483;28;20443;-66
2021/12/04 04:19:13;;;;;;;15.50;5.05;;;;;;;6.07;100.00;99189.72;4989854;28;20089;-66
2021/12/04 04:21:40;;;;;;;12.90;5.22;;;;;;;6.07;100.00;99180.91;4993925;28;20406;-67
2021/12/04 04:24:07;;;;;;;14.57;5.07;;;;;;;6.09;100.00;99192.81;4992832;28;20034;-65
2021/12/04 04:26:33;;;;;;;11.93;4.93;;;;;;;6.09;100.00;99190.13;4990685;28;20041;-66
2021/12/04 04:28:59;;;;;;;14.98;5.53;;;;;;;6.12;100.00;99180.59;4993584;28;20036;-67
2021/12/04 04:31:24;;;;;;;10.90;4.70;;;;;;;6.13;100.00;99192.84;4993257;28;20118;-66
2021/12/04 04:33:50;;;;;;;11.60;5.30;;;;;;;6.09;100.00;99184.00;4990190;28;20540;-67
2021/12/04 04:58:17;;;;;;;13.25;6.05;;;;;;;6.05;100.00;99191.97;4991186;28;20970;-65
2021/12/04 05:11:19;;;;;;;13.38;4.80;;;;;;;6.04;100.00;99195.75;4991625;28;20457;-67
2021/12/04 05:13:45;;;;;;;9.93;3.92;;;;;;;6.08;100.00;99201.94;4989161;28;20095;-68
2021/12/04 05:16:15;;;;;;;11.60;5.00;;;;;;;6.11;100.00;99205.78;4991045;28;20047;-67
2021/12/04 05:18:54;;;;;;;8.10;3.80;;;;;;;6.05;100.00;99199.22;4993212;28;20031;-67
2021/12/04 05:21:19;;;;;;;15.13;5.13;;;;;;;6.02;100.00;99202.63;4985108;28;20088;-67
2021/12/04 05:23:48;;;;;;;11.40;3.88;;;;;;;6.06;100.00;99206.88;4988497;28;20125;-66
2021/12/04 05:26:27;;;;;;;10.70;4.93;;;;;;;6.05;100.00;99202.66;4993107;28;20077;-67
2021/12/04 05:28:55;;;;;;;10.73;4.82;;;;;;;6.06;100.00;99198.06;4986762;28;20038;-67
2021/12/04 05:31:21;;;;;;;8.80;3.95;;;;;;;6.01;100.00;99201.84;4988177;28;20137;-67
2021/12/04 05:33:48;;;;;;;9.85;5.10;;;;;;;6.05;100.00;99194.66;4992389;28;20113;-66
2021/12/04 05:36:14;;;;;;;9.75;4.55;;;;;;;5.96;100.00;99193.38;4991563;28;20670;-66
2021/12/04 05:38:40;;;;;;;9.75;4.22;;;;;;;5.96;100.00;99199.47;4991840;28;20076;-68
2021/12/04 05:41:06;;;;;;;15.98;5.70;;;;;;;6.08;100.00;99195.81;4989511;28;20454;-67
2021/12/04 05:43:33;;;;;;;12.82;5.43;;;;;;;6.08;100.00;99195.81;4991684;28;20042;-66
2021/12/04 05:46:12;;;;;;;7.07;4.55;;;;;;;6.04;100.00;99206.44;4990948;28;20506;-67
2021/12/04 05:54:06;;;;;;;8.93;3.58;;;;;;;6.07;100.00;99199.63;4990915;28;20038;-66
2021/12/04 05:56:31;;;;;;;15.70;4.53;;;;;;;5.99;100.00;99200.66;4988181;28;20081;-68
2021/12/04 05:58:57;;;;;;;8.55;4.25;;;;;;;6.01;100.00;99199.16;4992218;28;20096;-67
2021/12/04 06:01:23;;;;;;;10.32;3.97;;;;;;;5.97;100.00;99193.00;4988474;28;20045;-67
2021/12/04 06:03:49;;;;;;;10.18;4.40;;;;;;;6.00;100.00;99196.88;4991557;28;20505;-67
2021/12/04 06:06:16;;;;;;;13.40;4.50;;;;;;;6.06;100.00;99198.06;4992194;28;20088;-67
2021/12/04 06:08:42;;;;;;;9.25;4.07;;;;;;;6.04;100.00;99195.75;4991790;28;20104;-68
2021/12/04 06:11:07;;;;;;;13.02;5.00;;;;;;;6.11;100.00;99203.13;4988388;28;20089;-67
2021/12/04 06:13:33;;;;;;;10.95;4.80;;;;;;;6.04;100.00;99200.34;4990832;28;20038;-68
2021/12/04 06:15:58;;;;;;;16.35;5.38;;;;;;;5.98;100.00;99201.78;4992140;28;20056;-67
2021/12/04 06:18:24;;;;;;;12.35;3.88;;;;;;;6.00;100.00;99215.56;4988779;28;20105;-66
2021/12/04 06:23:35;;;;;;;12.60;4.68;;;;;;;5.92;100.00;99212.00;4986135;28;20165;-67
2021/12/04 06:26:02;;;;;;;17.45;4.60;;;;;;;5.96;100.00;99217.41;4991032;28;20038;-65
2021/12/04 06:28:28;;;;;;;11.20;4.63;;;;;;;5.98;100.00;99220.50;4988577;28;20030;-67
2021/12/04 06:30:55;;;;;;;8.85;3.50;;;;;;;5.95;100.00;99216.63;4991150;28;20081;-65
2021/12/04 06:33:21;;;;;;;13.15;4.15;;;;;;;5.97;100.00;99213.59;4989221;28;20045;-67
2021/12/04 06:35:47;;;;;;;8.90;4.38;;;;;;;6.05;100.00;99218.69;4988264;28;20069;-66
2021/12/04 06:38:16;;;;;;;9.50;4.70;;;;;;;6.04;100.00;99211.78;4991744;28;20526;-67
2021/12/04 06:40:44;;;;;;;16.55;3.85;;;;;;;5.98;100.00;99207.13;4991320;28;20121;-67
2021/12/04 06:43:13;;;;;;;9.10;4.38;;;;;;;5.94;100.00;99212.41;4987084;28;20046;-66
2021/12/04 06:45:42;;;;;;;10.00;2.83;;;;;;;5.96;100.00;99210.16;4990391;28;20038;-68
2021/12/04 06:48:21;;;;;;;9.68;3.90;;;;;;;5.97;100.00;99210.91;4991545;28;20391;-67
2021/12/04 06:50:52;;;;;;;10.50;3.90;;;;;;;6.07;100.00;99215.66;4991121;28;20045;-67
2021/12/04 06:53:37;;;;;;;12.60;3.72;;;;;;;5.93;100.00;99207.44;4986424;28;20422;-67
2021/12/04 06:56:06;;;;;;;9.30;4.25;;;;;;;5.94;100.00;99211.66;4990208;28;20042;-66
2021/12/04 06:58:31;;;;;;;10.13;3.97;;;;;;;5.88;100.00;99208.53;4990503;28;20031;-66
2021/12/04 07:00:57;;;;;;;10.48;3.38;;;;;;;5.93;100.00;99210.88;4987968;28;20037;-68
2021/12/04 07:03:23;;;;;;;12.63;4.20;;;;;;;5.90;100.00;99222.28;4988736;28;20046;-67
2021/12/04 07:05:49;;;;;;;6.63;3.90;;;;;;;5.88;100.00;99229.09;4990820;28;20483;-67
2021/12/04 07:08:15;;;;;;;12.20;4.35;;;;;;;5.90;100.00;99210.81;4985366;28;20056;-66
2021/12/04 07:10:40;;;;;;;12.07;4.45;;;;;;;5.99;100.00;99211.34;4989159;28;20034;-67
2021/12/04 07:13:06;;;;;;;8.30;4.43;;;;;;;5.97;100.00;99211.69;4989479;28;20451;-66
2021/12/04 07:15:33;;;;;;;11.43;4.07;;;;;;;5.99;100.00;99203.31;4991492;28;20380;-67
2021/12/04 07:18:00;;;;;;;7.53;3.25;;;;;;;5.95;100.00;99208.63;4987819;28;20030;-66
2021/12/04 07:20:26;;;;;;;14.93;4.13;;;;;;;5.97;100.00;99210.91;4990181;28;20038;-68
2021/12/04 07:22:52;;;;;;;10.05;3.75;;;;;;;5.98;100.00;99213.22;4989890;28;20038;-67
2021/12/04 07:25:18;;;;;;;11.00;4.43;;;;;;;6.00;100.00;99220.91;4988013;28;20482;-67
2021/12/04 07:27:45;;;;;;;8.35;3.95;;;;;;;6.10;100.00;99223.72;4989723;28;20039;-67
2021/12/04 07:30:11;;;;;;;10.75;3.75;;;;;;;6.08;100.00;99227.88;4990802;28;20101;-66
2021/12/04 07:32:39;;;;;;;7.55;3.28;;;;;;;6.08;100.00;99225.19;4990344;28;20503;-67
2021/12/04 07:35:06;;;;;;;6.35;2.88;;;;;;;6.08;100.00;99222.53;4988458;28;20121;-67
2021/12/04 07:37:32;;;;;;;11.32;3.63;;;;;;;6.06;100.00;99220.22;4990901;28;20096;-67
2021/12/04 07:39:57;;;;;;;7.45;3.97;;;;;;;6.01;100.00;99223.22;4987156;28;20038;-68
2021/12/04 07:42:23;;;;;;;7.95;2.92;;;;;;;6.01;100.00;99219.75;4989586;28;20110;-67
2021/12/04 07:44:48;;;;;;;9.00;3.78;;;;;;;6.06;100.00;99212.19;4990180;28;20034;-66
2021/12/04 07:47:14;;;;;;;11.30;3.67;;;;;;;6.12;100.00;99218.00;4990480;28;20477;-68
2021/12/04 07:49:40;;;;;;;7.43;3.70;;;;;;;6.15;100.00;99215.41;4990017;28;20030;-66
2021/12/04 07:52:08;;;;;;;6.78;3.53;;;;;;;6.02;100.00;99221.31;4973604;28;20073;-66
2021/12/04 07:54:34;;;;;;;9.13;3.58;;;;;;;5.99;100.00;99216.69;4978472;28;20042;-66
2021/12/04 07:56:59;;;;;;;8.07;3.67;;;;;;;6.07;100.00;99207.63;4974050;28;20090;-66
2021/12/04 07:59:26;;;;;;;5.53;2.75;;;;;;;6.04;100.00;99203.78;4974363;28;20072;-66
2021/12/04 08:01:51;;;;;;;11.23;4.60;;;;;;;5.96;100.00;99199.47;4974031;28;20046;-65
2021/12/04 08:04:17;;;;;;;10.05;3.65;;;;;;;6.00;100.00;99199.53;4972987;28;20043;-68
2021/12/04 08:06:43;;;;;;;6.70;3.60;;;;;;;5.96;100.00;99212.06;4971399;28;20186;-66
2021/12/04 08:09:08;;;;;;;5.78;2.97;;;;;;;5.99;100.00;99211.34;4981984;28;20049;-67
2021/12/04 08:11:33;;;;;;;9.50;3.78;;;;;;;6.09;100.00;99208.06;4986485;28;20034;-66
2021/12/04 08:13:59;;;;;;;8.27;3.90;;;;;;;6.08;100.00;99203.81;4984544;28;20042;-68
2021/12/04 08:16:25;;;;;;;7.63;3.65;;;;;;;6.14;100.00;99207.72;4990926;28;20056;-67
2021/12/04 08:18:54;;;;;;;8.00;3.35;;;;;;;6.15;100.00;99206.63;4989798;28;20198;-67
2021/12/04 08:21:21;;;;;;;9.18;3.65;;;;;;;6.11;100.00;99200.44;4990190;28;20395;-66
2021/12/04 08:23:47;;;;;;;7.32;3.33;;;;;;;6.11;100.00;99221.81;4986669;28;20050;-67
2021/12/04 08:26:13;;;;;;;9.45;4.15;;;;;;;6.21;100.00;99215.88;4989364;28;20035;-67
2021/12/04 08:28:39;;;;;;;9.88;3.80;;;;;;;6.21;100.00;99216.63;4989927;28;20403;-67
2021/12/04 08:31:05;;;;;;;5.63;2.53;;;;;;;6.22;100.00;99215.50;4990079;28;20126;-67
2021/12/04 08:33:31;;;;;;;4.55;2.47;;;;;;;6.22;100.00;99226.19;4977817;28;20447;-66
2021/12/04 08:35:56;;;;;;;9.48;3.70;;;;;;;6.34;100.00;99225.97;4973796;28;20038;-66
2021/12/04 08:38:22;;;;;;;8.82;4.07;;;;;;;6.27;100.00;99231.22;4971856;28;20503;-66
2021/12/04 08:40:48;;;;;;;7.30;2.75;;;;;;;6.22;100.00;99223.50;4999264;23;20117;-67
2021/12/04 08:43:14;;;;;;;5.57;2.70;;;;;;;6.19;100.00;99231.50;5021321;28;20045;-67
2021/12/04 08:45:41;;;;;;;8.63;3.70;;;;;;;6.24;100.00;99226.59;5006995;28;20394;-67
2021/12/04 08:48:07;;;;;;;8.95;3.65;;;;;;;6.16;100.00;99235.66;5012522;28;20037;-67
2021/12/04 08:50:34;;;;;;;11.38;4.05;;;;;;;6.24;100.00;99233.84;4996336;28;20498;-66
2021/12/04 08:53:01;;;;;;;5.60;2.83;;;;;;;6.26;100.00;99234.25;5008531;28;20569;-66
2021/12/04 08:55:32;;;;;;;7.50;2.70;;;;;;;6.16;100.00;99222.28;4996912;28;20042;-67
2021/12/04 08:57:58;;;;;;;11.98;3.47;;;;;;;6.20;100.00;99230.34;4999660;28;20036;-67
2021/12/04 09:00:29;;;;;;;9.38;3.40;;;;;;;6.18;100.00;99216.56;5008422;28;20029;-67
2021/12/04 09:02:55;;;;;;;6.30;2.92;;;;;;;6.19;100.00;99216.19;5012621;28;20454;-66
2021/12/04 09:05:22;;;;;;;8.55;3.17;;;;;;;6.22;100.00;99222.75;5010927;28;20076;-67
2021/12/04 09:07:49;;;;;;;6.50;3.15;;;;;;;6.18;100.00;99221.91;5002730;28;20130;-68
2021/12/04 09:10:18;;;;;;;8.73;3.55;;;;;;;6.23;100.00;99217.03;5004504;28;20038;-67
2021/12/04 09:12:48;;;;;;;9.25;3.72;;;;;;;6.18;100.00;99219.25;4997829;28;20042;-67
2021/12/04 09:15:17;;;;;;;7.32;3.35;;;;;;;6.23;100.00;99214.34;4997701;28;20061;-67
2021/12/04 09:17:43;;;;;;;9.07;3.35;;;;;;;6.20;100.00;99216.97;4992720;28;20410;-68
2021/12/04 09:20:11;;;;;;;7.65;3.33;;;;;;;6.24;100.00;99225.81;4990983;28;20038;-67
2021/12/04 09:22:37;;;;;;;8.13;3.13;;;;;;;6.24;100.00;99215.91;4993118;28;20034;-68
2021/12/04 09:25:06;;;;;;;6.75;3.42;;;;;;;6.27;100.00;99217.09;4991241;28;20486;-68
2021/12/04 10:00:09;;;;;;;7.90;3.88;;;;;;;6.37;100.00;99185.16;4997297;28;20630;-67
2021/12/04 10:05:45;;;;;;;6.97;2.97;;;;;;;6.33;100.00;99189.69;5004368;28;20064;-68
2021/12/04 10:34:52;;;;;;;3.30;2.22;;;;;;;6.35;100.00;99152.66;4999997;28;20026;-67
2021/12/04 10:37:24;;;;;;;5.18;2.05;;;;;;;6.35;100.00;99149.22;4996226;28;20037;-68
2021/12/04 10:39:54;;;;;;;8.15;3.50;;;;;;;6.29;100.00;99148.00;5000182;28;20441;-68
2021/12/04 10:42:39;;;;;;;5.53;3.38;;;;;;;6.30;100.00;99144.19;4998105;28;20038;-67
2021/12/04 10:45:05;;;;;;;5.45;2.40;;;;;;;6.15;100.00;99153.94;4991059;28;20037;-67
2021/12/04 10:47:31;;;;;;;5.10;2.92;;;;;;;6.16;100.00;99149.34;4995603;28;20030;-68
2021/12/04 10:52:59;;;;;;;7.13;2.67;;;;;;;6.18;100.00;99147.88;4987136;28;20089;-66
2021/12/04 11:01:01;;;;;;;11.35;3.60;;;;;;;6.23;100.00;99146.78;4987956;28;20042;-67
2021/12/04 11:26:26;;;;;;;6.82;2.60;;;;;;;6.16;100.00;99127.97;4992083;28;20394;-68
2021/12/04 11:37:34;;;;;;;6.10;2.92;;;;;;;6.33;100.00;99127.41;4990898;28;20073;-68
2021/12/04 11:42:46;;;;;;;5.18;2.40;;;;;;;6.37;100.00;99118.31;5000208;28;19920;-67
2021/12/04 11:45:25;;;;;;;3.95;2.33;;;;;;;6.38;100.00;99117.19;5004168;28;20056;-68
2021/12/04 11:47:54;;;;;;;15.00;3.25;;;;;;;6.35;100.00;99106.44;5001437;28;20038;-67
2021/12/04 11:50:29;;;;;;;5.15;2.72;;;;;;;6.24;100.00;99108.22;4990281;28;20110;-68
2021/12/04 11:52:58;;;;;;;5.68;2.47;;;;;;;6.28;100.00;99091.09;5006734;28;20051;-68
2021/12/04 11:55:26;;;;;;;6.97;2.80;;;;;;;6.26;100.00;99089.94;5014527;28;20037;-68
2021/12/04 11:57:52;;;;;;;8.57;2.70;;;;;;;6.28;100.00;99093.00;4994518;28;20033;-68
2021/12/04 12:00:26;;;;;;;5.72;2.90;;;;;;;6.27;100.00;99092.22;4990151;28;20395;-68
2021/12/04 12:03:14;;;;;;;7.63;3.42;;;;;;;6.38;100.00;99081.66;4990695;28;20042;-67
2021/12/04 12:05:46;;;;;;;5.82;2.45;;;;;;;6.44;100.00;99085.56;4991896;28;20045;-68
2021/12/04 12:08:23;;;;;;;11.13;3.20;;;;;;;6.35;100.00;99069.03;4993405;28;20038;-68
2021/12/04 12:10:51;;;;;;;7.90;2.72;;;;;;;6.35;100.00;99082.38;5002993;28;20046;-69
2021/12/04 12:13:49;;;;;;;8.60;3.67;;;;;;;6.42;100.00;99077.13;4999043;28;20065;-68
2021/12/04 12:16:30;;;;;;;4.28;2.15;;;;;;;6.42;100.00;99077.13;4994710;28;20096;-68
2021/12/04 12:19:04;;;;;;;5.25;2.72;;;;;;;6.41;100.00;99075.59;5000542;28;20477;-68
2021/12/04 12:21:55;;;;;;;8.23;3.45;;;;;;;6.47;100.00;99063.44;4995925;28;20061;-68
2021/12/04 12:24:52;;;;;;;6.25;2.72;;;;;;;6.54;100.00;99074.22;4995138;28;20050;-67
2021/12/04 12:36:17;;;;;;;7.38;3.10;;;;;;;6.54;100.00;99076.13;4996249;28;20038;-68
2021/12/04 12:38:49;;;;;;;9.63;3.53;;;;;;;6.50;100.00;99084.09;4997355;28;20038;-68
2021/12/04 12:41:41;;;;;;;10.65;3.45;;;;;;;6.55;100.00;99085.66;4999296;28;20055;-68
2021/12/04 12:44:23;;;;;;;8.07;3.28;;;;;;;6.47;100.00;99086.72;4993062;28;20049;-68
2021/12/04 12:47:04;;;;;;;6.63;3.15;;;;;;;6.38;100.00;99087.03;4994625;28;20034;-68
2021/12/04 12:49:39;;;;;;;8.40;3.58;;;;;;;6.51;100.00;99090.97;4992897;28;20042;-67
2021/12/04 12:52:09;;;;;;;4.63;2.80;;;;;;;6.46;100.00;99093.97;4991580;28;20036;-68
2021/12/04 12:54:50;;;;;;;8.60;2.88;;;;;;;6.43;100.00;99085.94;4996136;28;20130;-69
2021/12/04 12:57:40;;;;;;;5.70;2.60;;;;;;;6.39;100.00;99077.84;4997779;28;20117;-69
2021/12/04 13:11:45;;;;;;;8.82;2.97;;;;;;;6.33;100.00;99058.69;4999769;28;20042;-68
2021/12/04 13:14:12;;;;;;;8.82;3.38;;;;;;;6.46;100.00;99051.22;4995694;28;20407;-69
2021/12/04 13:16:42;;;;;;;5.78;2.67;;;;;;;6.48;100.00;99059.63;4995356;28;20085;-69
2021/12/04 13:19:11;;;;;;;9.20;3.05;;;;;;;6.43;100.00;99049.25;4987457;28;20076;-67
2021/12/04 13:21:40;;;;;;;7.32;2.83;;;;;;;6.37;100.00;99038.13;4992075;28;20089;-68
2021/12/04 13:24:10;;;;;;;5.82;3.40;;;;;;;6.44;100.00;99032.09;4991565;28;20452;-68
2021/12/04 13:26:38;;;;;;;5.05;2.63;;;;;;;6.43;100.00;99033.22;4995994;28;20466;-67
2021/12/04 13:29:06;;;;;;;6.30;2.03;;;;;;;6.36;100.00;99030.47;4990316;28;20038;-68
2021/12/04 13:31:37;;;;;;;5.13;2.15;;;;;;;6.41;100.00;99022.13;4994867;28;20045;-68
2021/12/04 13:34:04;;;;;;;7.70;2.47;;;;;;;6.38;100.00;99020.97;4990650;28;20045;-67
2021/12/04 13:36:30;;;;;;;7.85;2.13;;;;;;;6.44;100.00;99005.34;4991371;28;20038;-68
2021/12/04 13:39:06;;;;;;;7.28;2.80;;;;;;;6.50;100.00;99013.81;4987117;28;20037;-68
2021/12/04 13:41:33;;;;;;;7.07;2.70;;;;;;;6.37;100.00;99011.41;4992199;28;20026;-69
2021/12/04 13:44:01;;;;;;;6.82;2.85;;;;;;;6.43;100.00;99014.50;4998203;28;20037;-68
2021/12/04 13:46:27;;;;;;;5.30;2.50;;;;;;;6.49;100.00;99001.56;4992735;28;20038;-69
2021/12/04 13:49:00;;;;;;;4.55;2.55;;;;;;;6.49;100.00;98998.88;4994674;28;20027;-68
2021/12/04 13:51:26;;;;;;;5.22;2.75;;;;;;;6.44;100.00;98997.34;5002817;28;20601;-67
2021/12/04 13:53:52;;;;;;;5.07;2.25;;;;;;;6.47;100.00;98993.91;5007436;28;20113;-67
2021/12/04 13:56:19;;;;;;;5.43;2.90;;;;;;;6.48;100.00;98995.47;5000589;28;20033;-67
2021/12/04 13:58:57;;;;;;;4.70;2.40;;;;;;;6.52;100.00;98988.25;5004934;28;20030;-69
2021/12/04 14:01:25;;;;;;;6.30;2.92;;;;;;;6.53;100.00;98991.66;5001030;28;20034;-68
2021/12/04 14:03:58;;;;;;;7.18;2.75;;;;;;;6.50;100.00;98987.84;4998896;28;20433;-68
2021/12/04 14:06:24;;;;;;;7.70;3.42;;;;;;;6.51;100.00;98983.25;5007054;28;20512;-67
2021/12/04 14:09:07;;;;;;;8.13;3.00;;;;;;;6.50;100.00;98981.72;5007149;28;20240;-67
2021/12/04 14:11:40;;;;;;;3.38;2.35;;;;;;;6.45;100.00;98982.81;4998894;28;20491;-68
2021/12/04 14:14:28;;;;;;;5.72;2.75;;;;;;;6.46;100.00;98968.34;4992440;28;20684;-68
2021/12/04 14:16:55;;;;;;;9.73;3.10;;;;;;;6.53;100.00;98964.94;5000340;28;20039;-69
2021/12/04 14:19:22;;;;;;;7.03;3.33;;;;;;;6.54;100.00;98972.59;4997177;28;20065;-68
2021/12/04 14:22:03;;;;;;;7.05;3.33;;;;;;;6.52;100.00;98974.88;4996581;28;20042;-68
2021/12/04 14:24:43;;;;;;;12.32;4.05;;;;;;;6.50;100.00;98977.16;4994372;28;20029;-69
2021/12/04 14:27:10;;;;;;;5.57;2.45;;;;;;;6.43;100.00;98977.06;4999910;28;20034;-69
2021/12/04 14:29:41;;;;;;;5.47;2.60;;;;;;;6.44;100.00;98978.63;4997871;28;20117;-68
2021/12/04 14:32:08;;;;;;;5.10;2.33;;;;;;;6.37;100.00;98984.66;5001056;28;20483;-68
2021/12/04 14:34:33;;;;;;;8.50;3.40;;;;;;;6.43;100.00;98966.38;5005631;28;20109;-67
2021/12/04 14:37:19;;;;;;;8.07;2.63;;;;;;;6.44;100.00;98975.19;4998415;28;20113;-68
2021/12/04 14:39:47;;;;;;;7.82;2.28;;;;;;;6.44;100.00;98973.28;4991677;28;20036;-68
2021/12/04 14:42:17;;;;;;;8.88;2.67;;;;;;;6.46;100.00;98983.59;5002367;28;20103;-68
2021/12/04 14:44:49;;;;;;;8.68;2.47;;;;;;;6.49;100.00;98988.97;4999849;28;20372;-67
2021/12/04 14:47:16;;;;;;;5.97;2.53;;;;;;;6.44;100.00;98986.66;5007199;28;20038;-69
2021/12/04 14:49:44;;;;;;;9.43;3.05;;;;;;;6.51;100.00;98978.69;5007596;28;20041;-69